Time;durP1;ratioP1;P1;durP2;ratioP2;P2;SDS_P1;SDS_P2;PMS_P1;PMS_P2;Temp;Humidity;BMP_temperature;BMP_pressure;BME280_temperature;BME280_humidity;BME280_pressure;Samples;Min_cycle;Max_cycle;Signal;HPM_P1;HPM_P2
2022/05/12 00:00:47;;;;;;;;;;;;;;;22.07;51.54;100081.88;2075595;28;19986;-43
2022/05/12 00:01:48;;;;;;;;;;;;;;;22.07;51.73;100090.13;2076506;28;19955;-43
2022/05/12 00:02:48;;;;;;;;;;;;;;;22.08;51.61;100082.75;2084669;28;19959;-44
2022/05/12 00:03:49;;;;;;;;;;;;;;;22.08;51.53;100093.75;2084843;28;19927;-43
2022/05/12 00:04:49;;;;;;;;;;;;;;;22.08;51.63;100083.63;2076957;28;19928;-43
2022/05/12 00:05:49;;;;;;;;;;;;;;;22.08;51.76;100088.25;2076156;28;19917;-43
2022/05/12 00:06:50;;;;;;;;;;;;;;;22.07;51.86;100081.03;2083868;28;19917;-43
2022/05/12 00:07:50;;;;;;;;;;;;;;;22.06;51.67;100077.44;2085835;28;19928;-43
2022/05/12 00:08:51;;;;;;;;;;;;;;;22.07;51.74;100075.53;2083883;28;19924;-44
2022/05/12 00:09:51;;;;;;;;;;;;;;;22.07;51.58;100079.13;2083595;28;19913;-43
2022/05/12 00:10:52;;;;;;;;;;;;;;;22.08;51.76;100080.88;2085069;28;20454;-43
2022/05/12 00:11:52;;;;;;;;;;;;;;;22.06;51.96;100082.91;2084723;28;20035;-42
2022/05/12 00:12:53;;;;;;;;;;;;;;;22.07;51.72;100081.88;2084708;28;19944;-44
2022/05/12 00:13:53;;;;;;;;;;;;;;;22.06;51.47;100091.16;2089162;28;19966;-43
2022/05/12 00:14:54;;;;;;;;;;;;;;;22.06;51.53;100082.91;2084060;28;19924;-44
2022/05/12 00:15:55;;;;;;;;;;;;;;;22.06;51.56;100085.66;2085096;28;19916;-43
2022/05/12 00:16:58;;;;;;;;;;;;;;;22.07;51.74;100075.53;2084552;28;20407;-43
2022/05/12 00:18:02;;;;;;;;;;;;;;;22.06;51.56;100080.19;2084497;28;20238;-44
2022/05/12 00:19:02;;;;;;;;;;;;;;;22.07;51.69;100079.13;2085097;28;19939;-43
2022/05/12 00:20:03;;;;;;;;;;;;;;;22.06;51.78;100080.19;2083364;28;20206;-43
2022/05/12 00:21:03;;;;;;;;;;;;;;;22.05;51.80;100072.97;2084724;28;19986;-44
2022/05/12 00:22:03;;;;;;;;;;;;;;;22.06;51.93;100080.19;2084188;28;19916;-43
2022/05/12 00:23:08;;;;;;;;;;;;;;;22.05;51.87;100078.47;2081690;28;20223;-43
2022/05/12 00:24:08;;;;;;;;;;;;;;;22.05;52.01;100079.31;2085934;28;20410;-44
2022/05/12 00:25:13;;;;;;;;;;;;;;;22.05;51.75;100081.22;2082343;28;20028;-42
2022/05/12 00:26:13;;;;;;;;;;;;;;;22.05;51.71;100078.47;2084990;28;19916;-43
2022/05/12 00:27:13;;;;;;;;;;;;;;;22.05;51.91;100083.97;2085348;28;19999;-43
2022/05/12 00:28:15;;;;;;;;;;;;;;;22.05;51.92;100086.72;2085691;28;20344;-43
2022/05/12 00:29:15;;;;;;;;;;;;;;;22.05;51.73;100093.03;2083715;28;19909;-45
2022/05/12 00:30:15;;;;;;;;;;;;;;;22.05;51.71;100089.44;2085337;28;19956;-43
2022/05/12 00:31:15;;;;;;;;;;;;;;;22.06;51.74;100099.38;2084033;28;19916;-44
2022/05/12 00:32:16;;;;;;;;;;;;;;;22.05;51.83;100094.94;2084309;28;19920;-43
2022/05/12 00:33:17;;;;;;;;;;;;;;;22.05;52.00;100098.53;2086968;28;19916;-44
2022/05/12 00:34:19;;;;;;;;;;;;;;;22.07;51.98;100092.00;2083192;28;20097;-43
2022/05/12 00:35:19;;;;;;;;;;;;;;;22.05;51.95;100094.94;2086619;28;19924;-42
2022/05/12 00:36:20;;;;;;;;;;;;;;;22.05;51.78;100092.19;2083642;28;20833;-41
2022/05/12 00:37:20;;;;;;;;;;;;;;;22.05;51.74;100094.94;2083808;28;19913;-43
2022/05/12 00:38:20;;;;;;;;;;;;;;;22.05;51.87;100093.03;2086042;28;19939;-41
2022/05/12 00:39:21;;;;;;;;;;;;;;;22.05;51.94;100089.44;2083100;28;19923;-42
2022/05/12 00:40:21;;;;;;;;;;;;;;;22.04;52.00;100091.31;2086794;28;20260;-41
2022/05/12 00:41:21;;;;;;;;;;;;;;;22.04;51.70;100090.47;2083163;28;19920;-41
2022/05/12 00:42:22;;;;;;;;;;;;;;;22.03;51.75;100097.84;2086030;28;19919;-41
2022/05/12 00:43:42;;;;;;;;;;;;;;;22.04;51.82;100095.94;2084293;28;19942;-41
2022/05/12 00:44:43;;;;;;;;;;;;;;;22.03;51.92;100095.09;2080650;28;20118;-42
2022/05/12 00:45:43;;;;;;;;;;;;;;;22.04;52.08;100098.69;2084897;28;19966;-42
2022/05/12 00:46:44;;;;;;;;;;;;;;;22.04;51.87;100104.19;2073665;28;19935;-42
2022/05/12 00:47:45;;;;;;;;;;;;;;;22.04;52.02;100101.44;2075160;28;20596;-44
2022/05/12 00:48:46;;;;;;;;;;;;;;;22.03;51.91;100097.00;2087035;28;19920;-43
2022/05/12 00:49:47;;;;;;;;;;;;;;;22.04;51.88;100109.66;2082245;28;20678;-42
2022/05/12 00:50:48;;;;;;;;;;;;;;;22.03;51.92;100107.97;2084212;28;19912;-43
2022/05/12 00:52:08;;;;;;;;;;;;;;;22.03;51.83;100106.06;2086244;28;19916;-43
2022/05/12 00:53:10;;;;;;;;;;;;;;;22.03;52.21;100113.47;2082399;28;19916;-43
2022/05/12 00:54:19;;;;;;;;;;;;;;;22.03;52.16;100107.97;2086045;28;19920;-42
2022/05/12 00:55:28;;;;;;;;;;;;;;;22.03;52.01;100116.19;2084965;28;19970;-41
2022/05/12 00:56:28;;;;;;;;;;;;;;;22.03;52.17;100116.19;2083909;28;20417;-41
2022/05/12 00:57:31;;;;;;;;;;;;;;;22.03;52.11;100110.72;2084221;28;20274;-44
2022/05/12 00:58:33;;;;;;;;;;;;;;;22.03;52.03;100113.47;2083487;28;20031;-42
2022/05/12 00:59:34;;;;;;;;;;;;;;;22.03;52.08;100116.19;2083448;28;19915;-41
2022/05/12 01:00:36;;;;;;;;;;;;;;;22.02;52.17;100118.09;2084841;28;20337;-41
2022/05/12 01:01:37;;;;;;;;;;;;;;;22.01;52.27;100110.88;2084063;28;19974;-42
2022/05/12 01:02:38;;;;;;;;;;;;;;;22.02;52.21;100118.09;2083870;28;19920;-41
2022/05/12 01:03:40;;;;;;;;;;;;;;;22.01;52.33;100119.09;2086498;28;19974;-41
2022/05/12 01:04:41;;;;;;;;;;;;;;;22.01;52.25;100121.00;2082073;28;20164;-42
2022/05/12 01:05:42;;;;;;;;;;;;;;;22.01;52.39;100121.84;2086143;28;19920;-42
2022/05/12 01:06:43;;;;;;;;;;;;;;;22.01;52.17;100119.09;2074672;28;20241;-40
2022/05/12 01:07:43;;;;;;;;;;;;;;;22.01;52.21;100126.50;2074462;28;20007;-41
2022/05/12 01:08:44;;;;;;;;;;;;;;;22.01;52.39;100126.50;2083915;28;20007;-43
2022/05/12 01:09:45;;;;;;;;;;;;;;;22.01;52.21;100126.50;2083609;28;19924;-42
2022/05/12 01:10:56;;;;;;;;;;;;;;;22.00;52.38;100122.03;2084286;28;19998;-43
2022/05/12 01:11:57;;;;;;;;;;;;;;;22.00;52.17;100125.63;2085714;28;20188;-42
2022/05/12 01:12:58;;;;;;;;;;;;;;;22.00;52.30;100127.53;2074440;28;20341;-42
2022/05/12 01:14:00;;;;;;;;;;;;;;;22.00;52.30;100122.88;2075883;28;19916;-42
2022/05/12 01:15:00;;;;;;;;;;;;;;;22.01;52.22;100123.75;2083961;28;20034;-42
2022/05/12 01:16:02;;;;;;;;;;;;;;;22.00;52.57;100124.78;2081960;28;20356;-43
2022/05/12 01:17:03;;;;;;;;;;;;;;;22.00;52.21;100124.78;2085210;28;19923;-43
2022/05/12 01:18:05;;;;;;;;;;;;;;;22.00;52.40;100122.88;2085060;28;20240;-42
2022/05/12 01:19:06;;;;;;;;;;;;;;;22.00;52.41;100125.63;2085459;28;20128;-41
2022/05/12 01:20:07;;;;;;;;;;;;;;;22.01;52.28;100121.00;2085299;28;20354;-42
2022/05/12 01:21:08;;;;;;;;;;;;;;;22.00;52.43;100127.53;2080547;28;19958;-42
2022/05/12 01:22:10;;;;;;;;;;;;;;;21.99;52.55;100123.91;2080052;28;19992;-42
2022/05/12 01:23:18;;;;;;;;;;;;;;;21.99;52.48;100121.16;2080671;28;19916;-42
2022/05/12 01:24:20;;;;;;;;;;;;;;;21.99;52.43;100123.03;2074574;28;19979;-43
2022/05/12 01:25:22;;;;;;;;;;;;;;;21.99;52.43;100128.53;2083987;28;20201;-43
2022/05/12 01:26:22;;;;;;;;;;;;;;;21.99;52.49;100123.91;2084414;28;20369;-42
2022/05/12 01:27:23;;;;;;;;;;;;;;;21.98;52.39;100133.16;2084375;28;19923;-41
2022/05/12 01:28:23;;;;;;;;;;;;;;;21.97;52.47;100125.09;2084286;28;19917;-44
2022/05/12 01:29:25;;;;;;;;;;;;;;;21.98;52.66;100124.09;2084216;28;20354;-42
2022/05/12 01:30:25;;;;;;;;;;;;;;;21.97;52.65;100119.59;2084315;28;20959;-43
2022/05/12 01:31:26;;;;;;;;;;;;;;;21.98;52.68;100121.34;2075214;28;19908;-42
2022/05/12 01:32:27;;;;;;;;;;;;;;;21.96;52.68;100118.75;2074780;28;19921;-41
2022/05/12 01:33:28;;;;;;;;;;;;;;;21.98;52.74;100118.59;2084701;28;19917;-41
2022/05/12 01:34:28;;;;;;;;;;;;;;;21.97;52.65;100119.59;2084026;28;19927;-43
2022/05/12 01:35:29;;;;;;;;;;;;;;;21.97;52.53;100120.47;2083230;28;19951;-42
2022/05/12 01:36:29;;;;;;;;;;;;;;;21.97;52.57;100112.22;2085186;28;19921;-42
2022/05/12 01:37:29;;;;;;;;;;;;;;;21.97;52.65;100125.94;2081428;28;20066;-41
2022/05/12 01:38:29;;;;;;;;;;;;;;;21.98;52.72;100129.56;2084470;28;19908;-41
2022/05/12 01:39:30;;;;;;;;;;;;;;;21.97;52.77;100125.94;2082000;28;20319;-42
2022/05/12 01:40:31;;;;;;;;;;;;;;;21.98;52.46;100126.84;2084673;28;19957;-43
2022/05/12 01:41:31;;;;;;;;;;;;;;;21.97;52.49;100125.09;2084669;28;19947;-43
2022/05/12 01:42:31;;;;;;;;;;;;;;;21.98;52.80;100132.31;2083647;28;20263;-42
2022/05/12 01:43:32;;;;;;;;;;;;;;;21.97;52.84;100130.59;2083549;28;19927;-42
2022/05/12 01:44:32;;;;;;;;;;;;;;;21.96;52.75;100124.25;2083862;28;20011;-42
2022/05/12 01:45:33;;;;;;;;;;;;;;;21.97;52.83;100122.34;2084552;28;19916;-43
2022/05/12 01:46:33;;;;;;;;;;;;;;;21.97;53.01;100127.84;2083552;28;20395;-41
2022/05/12 01:47:34;;;;;;;;;;;;;;;21.96;52.87;100124.25;2080451;28;19921;-42
2022/05/12 01:48:35;;;;;;;;;;;;;;;21.95;52.77;100122.53;2084864;28;20215;-41
2022/05/12 01:49:35;;;;;;;;;;;;;;;21.96;52.88;100128.88;2083924;28;20036;-42
2022/05/12 01:50:36;;;;;;;;;;;;;;;21.95;53.06;100125.28;2085475;28;20250;-41
2022/05/12 01:51:38;;;;;;;;;;;;;;;21.95;52.83;100121.66;2084456;28;19920;-41
2022/05/12 01:52:43;;;;;;;;;;;;;;;21.96;52.90;100123.41;2085389;28;19927;-42
2022/05/12 01:53:44;;;;;;;;;;;;;;;21.94;52.92;100117.22;2083917;28;19920;-42
2022/05/12 01:54:44;;;;;;;;;;;;;;;21.94;53.00;100120.81;2083530;28;20570;-42
2022/05/12 01:55:47;;;;;;;;;;;;;;;21.95;52.93;100121.66;2082881;28;20140;-43
2022/05/12 01:56:47;;;;;;;;;;;;;;;21.94;52.91;100122.69;2082859;28;19913;-42
2022/05/12 01:57:47;;;;;;;;;;;;;;;21.94;52.83;100125.44;2085166;28;20249;-42
2022/05/12 01:58:47;;;;;;;;;;;;;;;21.93;53.03;100121.84;2084837;28;19942;-43
2022/05/12 01:59:48;;;;;;;;;;;;;;;21.94;52.83;100125.44;2082605;28;19916;-42
2022/05/12 02:00:48;;;;;;;;;;;;;;;21.93;53.17;100130.06;2082695;28;20560;-42
2022/05/12 02:01:49;;;;;;;;;;;;;;;21.93;52.95;100119.09;2084932;28;19916;-42
2022/05/12 02:02:50;;;;;;;;;;;;;;;21.93;52.98;100123.72;2073901;28;19917;-42
2022/05/12 02:03:50;;;;;;;;;;;;;;;21.93;53.17;100123.72;2069754;28;20539;-42
2022/05/12 02:04:50;;;;;;;;;;;;;;;21.93;53.03;100129.22;2083435;28;20134;-42
2022/05/12 02:05:51;;;;;;;;;;;;;;;21.92;53.12;100136.56;2082664;28;19924;-43
2022/05/12 02:06:51;;;;;;;;;;;;;;;21.93;53.15;100130.06;2085191;28;20528;-42
2022/05/12 02:07:51;;;;;;;;;;;;;;;21.94;53.18;100130.94;2083814;28;19916;-43
2022/05/12 02:08:52;;;;;;;;;;;;;;;21.93;52.87;100126.47;2083533;28;19925;-41
2022/05/12 02:09:52;;;;;;;;;;;;;;;21.93;52.91;100123.72;2084250;28;20004;-43
2022/05/12 02:10:53;;;;;;;;;;;;;;;21.94;53.17;100119.94;2083100;28;20654;-43
2022/05/12 02:11:53;;;;;;;;;;;;;;;21.94;53.17;100125.44;2084922;28;19916;-42
2022/05/12 02:12:54;;;;;;;;;;;;;;;21.93;53.02;100121.00;2082536;28;19964;-42
2022/05/12 02:13:54;;;;;;;;;;;;;;;21.93;53.11;100118.25;2083672;28;19974;-41
2022/05/12 02:14:54;;;;;;;;;;;;;;;21.93;52.98;100119.09;2076103;28;19917;-42
2022/05/12 02:15:56;;;;;;;;;;;;;;;21.91;52.98;100120.28;2073718;28;19917;-41
2022/05/12 02:16:56;;;;;;;;;;;;;;;21.93;52.99;100134.72;2085762;28;19927;-42
2022/05/12 02:17:57;;;;;;;;;;;;;;;21.93;53.14;100131.97;2082681;28;19924;-42
2022/05/12 02:18:57;;;;;;;;;;;;;;;21.94;53.08;100130.94;2083995;28;20475;-43
2022/05/12 02:19:57;;;;;;;;;;;;;;;21.92;53.24;100124.75;2084953;28;20072;-42
2022/05/12 02:20:58;;;;;;;;;;;;;;;21.91;53.26;100134.88;2082206;28;19920;-44
2022/05/12 02:22:00;;;;;;;;;;;;;;;21.92;53.08;100127.50;2087072;28;20266;-43
2022/05/12 02:23:00;;;;;;;;;;;;;;;21.92;53.15;100132.97;2082433;28;19909;-44
2022/05/12 02:24:01;;;;;;;;;;;;;;;21.90;53.08;100130.41;2083609;28;20789;-42
2022/05/12 02:25:01;;;;;;;;;;;;;;;21.90;53.18;100130.41;2080191;28;19916;-42
2022/05/12 02:26:02;;;;;;;;;;;;;;;21.92;53.17;100132.97;2081436;28;19943;-42
2022/05/12 02:27:02;;;;;;;;;;;;;;;21.92;53.18;100130.22;2083514;28;19916;-42
2022/05/12 02:28:03;;;;;;;;;;;;;;;21.92;53.12;100133.81;2082677;28;19915;-43
2022/05/12 02:29:04;;;;;;;;;;;;;;;21.93;53.26;100140.19;2073191;28;19952;-43
2022/05/12 02:30:04;;;;;;;;;;;;;;;21.92;52.93;100138.47;2075368;28;20026;-42
2022/05/12 02:31:05;;;;;;;;;;;;;;;21.92;53.25;100144.81;2084737;28;19920;-43
2022/05/12 02:32:05;;;;;;;;;;;;;;;21.93;53.26;100145.69;2083345;28;19966;-42
2022/05/12 02:33:06;;;;;;;;;;;;;;;21.92;53.14;100152.19;2083206;28;19954;-44
2022/05/12 02:34:06;;;;;;;;;;;;;;;21.91;53.24;100153.22;2083390;28;19921;-42
2022/05/12 02:35:07;;;;;;;;;;;;;;;21.92;53.12;100149.44;2083106;28;19951;-42
2022/05/12 02:36:07;;;;;;;;;;;;;;;21.90;53.33;100146.00;2083323;28;19960;-42
2022/05/12 02:37:08;;;;;;;;;;;;;;;21.91;53.23;100151.34;2083708;28;20603;-43
2022/05/12 02:38:10;;;;;;;;;;;;;;;21.92;53.08;100149.44;2083669;28;19916;-42
2022/05/12 02:39:10;;;;;;;;;;;;;;;21.91;53.16;100145.84;2073843;28;19921;-41
2022/05/12 02:40:12;;;;;;;;;;;;;;;21.92;53.19;100154.94;2073316;28;20416;-41
2022/05/12 02:41:13;;;;;;;;;;;;;;;21.91;53.29;100153.22;2082672;28;19908;-41
2022/05/12 02:42:13;;;;;;;;;;;;;;;21.90;53.33;100152.38;2083103;28;19909;-42
2022/05/12 02:43:23;;;;;;;;;;;;;;;21.90;53.11;100151.50;2085332;28;20722;-43
2022/05/12 02:44:23;;;;;;;;;;;;;;;21.91;53.37;100155.97;2077979;28;19917;-42
2022/05/12 02:45:24;;;;;;;;;;;;;;;21.90;53.48;100154.22;2082605;28;20353;-42
2022/05/12 02:46:25;;;;;;;;;;;;;;;21.90;53.45;100152.38;2083010;28;19925;-43
2022/05/12 02:47:25;;;;;;;;;;;;;;;21.90;53.30;100152.38;2083533;28;20362;-42
2022/05/12 02:48:27;;;;;;;;;;;;;;;21.89;53.51;100145.16;2084659;28;19916;-41
2022/05/12 02:49:27;;;;;;;;;;;;;;;21.90;53.33;100156.97;2075123;28;20019;-42
2022/05/12 02:50:27;;;;;;;;;;;;;;;21.89;53.42;100152.53;2075106;28;19917;-43
2022/05/12 02:51:28;;;;;;;;;;;;;;;21.88;53.44;100153.53;2084602;28;20410;-41
2022/05/12 02:52:28;;;;;;;;;;;;;;;21.89;53.43;100155.28;2082739;28;19999;-42
2022/05/12 02:53:29;;;;;;;;;;;;;;;21.87;53.51;100152.69;2083008;28;19920;-41
2022/05/12 02:54:29;;;;;;;;;;;;;;;21.88;53.54;100151.69;2083612;28;19959;-44
2022/05/12 02:55:29;;;;;;;;;;;;;;;21.88;53.39;100148.03;2082708;28;20727;-43
2022/05/12 02:56:30;;;;;;;;;;;;;;;21.87;53.45;100151.84;2085493;28;20334;-41
2022/05/12 02:57:30;;;;;;;;;;;;;;;21.87;53.68;100151.84;2074377;28;20201;-43
2022/05/12 02:58:30;;;;;;;;;;;;;;;21.87;53.76;100162.81;2073217;28;19939;-41
2022/05/12 02:59:31;;;;;;;;;;;;;;;21.87;53.74;100151.84;2083466;28;20286;-42
2022/05/12 03:00:33;;;;;;;;;;;;;;;21.87;53.55;100157.31;2082379;28;20321;-42
2022/05/12 03:01:33;;;;;;;;;;;;;;;21.86;53.83;100150.13;2083728;28;20019;-43
2022/05/12 03:02:33;;;;;;;;;;;;;;;21.86;53.71;100150.13;2084009;28;20204;-43
2022/05/12 03:03:34;;;;;;;;;;;;;;;21.86;53.66;100156.47;2083358;28;20261;-42
2022/05/12 03:04:35;;;;;;;;;;;;;;;21.86;53.53;100161.09;2083662;28;20164;-42
2022/05/12 03:05:35;;;;;;;;;;;;;;;21.85;53.54;100154.72;2081772;28;20267;-42
2022/05/12 03:06:37;;;;;;;;;;;;;;;21.86;53.64;100158.34;2084784;28;20124;-42
2022/05/12 03:07:38;;;;;;;;;;;;;;;21.86;53.59;100150.13;2082968;28;19920;-42
2022/05/12 03:08:42;;;;;;;;;;;;;;;21.86;53.53;100161.09;2082978;28;20703;-43
2022/05/12 03:09:43;;;;;;;;;;;;;;;21.85;53.79;100143.75;2083132;28;19936;-43
2022/05/12 03:10:43;;;;;;;;;;;;;;;21.85;53.58;100154.72;2083128;28;20353;-42
2022/05/12 03:11:44;;;;;;;;;;;;;;;21.85;53.83;100154.72;2084305;28;19916;-43
2022/05/12 03:12:44;;;;;;;;;;;;;;;21.86;53.80;100155.63;2083776;28;20057;-42
2022/05/12 03:13:44;;;;;;;;;;;;;;;21.85;53.53;100143.75;2084533;28;19920;-42
2022/05/12 03:14:45;;;;;;;;;;;;;;;21.86;53.60;100144.63;2083328;28;19908;-42
2022/05/12 03:15:45;;;;;;;;;;;;;;;21.84;53.71;100153.88;2080686;28;19920;-44
2022/05/12 03:16:45;;;;;;;;;;;;;;;21.85;53.81;100146.50;2083868;28;20239;-42
2022/05/12 03:17:45;;;;;;;;;;;;;;;21.84;53.83;100148.38;2082527;28;20352;-42
2022/05/12 03:18:47;;;;;;;;;;;;;;;21.85;53.70;100146.50;2084170;28;19916;-43
2022/05/12 03:19:47;;;;;;;;;;;;;;;21.84;53.69;100142.91;2084260;28;20804;-42
2022/05/12 03:20:48;;;;;;;;;;;;;;;21.83;53.82;100141.19;2081478;28;19924;-43
2022/05/12 03:21:49;;;;;;;;;;;;;;;21.84;53.63;100142.06;2083241;28;19916;-42
2022/05/12 03:22:50;;;;;;;;;;;;;;;21.84;53.67;100139.31;2082945;28;19931;-42
2022/05/12 03:23:50;;;;;;;;;;;;;;;21.83;53.70;100146.69;2083570;28;20014;-43
2022/05/12 03:24:51;;;;;;;;;;;;;;;21.84;53.56;100139.31;2083198;28;20390;-42
2022/05/12 03:25:52;;;;;;;;;;;;;;;21.83;53.67;100143.94;2081825;28;19978;-42
2022/05/12 03:26:52;;;;;;;;;;;;;;;21.82;53.58;100142.19;2083282;28;19916;-42
2022/05/12 03:27:52;;;;;;;;;;;;;;;21.82;53.76;100139.47;2085676;28;19920;-42
2022/05/12 03:28:53;;;;;;;;;;;;;;;21.83;53.71;100135.72;2082295;28;19912;-42
2022/05/12 03:29:53;;;;;;;;;;;;;;;21.83;53.89;100129.38;2084284;28;20573;-44
2022/05/12 03:30:53;;;;;;;;;;;;;;;21.82;53.66;100131.22;2080838;28;19931;-42
2022/05/12 03:31:53;;;;;;;;;;;;;;;21.83;53.82;100141.19;2083204;28;19909;-43
2022/05/12 03:32:54;;;;;;;;;;;;;;;21.83;53.96;100140.34;2080257;28;20772;-43
2022/05/12 03:33:54;;;;;;;;;;;;;;;21.83;54.01;100146.69;2082163;28;19908;-42
2022/05/12 03:34:55;;;;;;;;;;;;;;;21.83;53.91;100143.09;2081977;28;19955;-42
2022/05/12 03:35:56;;;;;;;;;;;;;;;21.85;53.87;100143.75;2081615;28;19931;-43
2022/05/12 03:36:56;;;;;;;;;;;;;;;21.86;53.87;100144.63;2081581;28;20390;-43
2022/05/12 03:37:56;;;;;;;;;;;;;;;21.86;53.96;100145.50;2082910;28;19912;-41
2022/05/12 03:38:57;;;;;;;;;;;;;;;21.88;53.79;100145.31;2082783;28;20508;-43
2022/05/12 03:39:57;;;;;;;;;;;;;;;21.89;54.00;100141.56;2079774;28;19971;-45
2022/05/12 03:40:57;;;;;;;;;;;;;;;21.90;53.76;100152.38;2083117;28;20228;-43
2022/05/12 03:41:57;;;;;;;;;;;;;;;21.92;53.91;100143.94;2084993;28;19927;-43
2022/05/12 03:42:58;;;;;;;;;;;;;;;21.92;53.86;100146.69;2082080;28;19917;-44
2022/05/12 03:45:18;;;;;;;;;;;;;;;21.94;53.73;100141.91;2081665;28;20160;-44
2022/05/12 03:46:18;;;;;;;;;;;;;;;21.96;53.70;100151.69;2082070;28;20577;-43
2022/05/12 03:47:19;;;;;;;;;;;;;;;21.96;53.86;100150.84;2089341;28;19916;-44
2022/05/12 03:48:20;;;;;;;;;;;;;;;21.96;53.80;100145.34;2091800;28;20368;-44
2022/05/12 03:49:20;;;;;;;;;;;;;;;21.97;53.96;100141.56;2072016;28;20007;-43
2022/05/12 03:50:22;;;;;;;;;;;;;;;21.97;54.01;100141.56;2072560;28;19971;-44
2022/05/12 03:51:23;;;;;;;;;;;;;;;21.98;53.80;100149.63;2081275;28;20355;-44
2022/05/12 03:52:23;;;;;;;;;;;;;;;21.98;53.77;100140.56;2078371;28;19908;-43
2022/05/12 03:53:24;;;;;;;;;;;;;;;21.99;54.05;100143.13;2083090;28;19916;-44
2022/05/12 03:54:25;;;;;;;;;;;;;;;21.99;54.07;100139.50;2079812;28;20022;-44
2022/05/12 03:55:26;;;;;;;;;;;;;;;21.99;53.95;100145.84;2081697;28;20347;-44
2022/05/12 03:56:27;;;;;;;;;;;;;;;22.00;54.00;100141.25;2081124;28;19912;-43
2022/05/12 03:57:27;;;;;;;;;;;;;;;22.00;54.07;100141.25;2082830;28;19908;-43
2022/05/12 03:58:28;;;;;;;;;;;;;;;22.00;54.14;100133.00;2080075;28;19920;-43
2022/05/12 03:59:28;;;;;;;;;;;;;;;21.98;53.99;100137.81;2084101;28;20010;-46
2022/05/12 04:00:29;;;;;;;;;;;;;;;21.99;54.20;100140.38;2083040;28;19996;-44
2022/05/12 04:01:29;;;;;;;;;;;;;;;21.99;53.89;100139.50;2083817;28;20124;-43
2022/05/12 04:02:30;;;;;;;;;;;;;;;21.98;54.25;100137.81;2079426;28;19929;-43
2022/05/12 04:03:30;;;;;;;;;;;;;;;21.99;53.96;100139.50;2082308;28;19918;-43
2022/05/12 04:04:31;;;;;;;;;;;;;;;21.99;54.03;100145.00;2081935;28;19928;-43
2022/05/12 04:05:32;;;;;;;;;;;;;;;21.99;53.93;100134.03;2081675;28;20222;-43
2022/05/12 04:06:32;;;;;;;;;;;;;;;21.99;53.84;100134.03;2082918;28;19913;-43
2022/05/12 04:07:33;;;;;;;;;;;;;;;21.99;53.91;100128.53;2081078;28;19971;-43
2022/05/12 04:08:34;;;;;;;;;;;;;;;21.98;53.94;100132.31;2083455;28;20565;-44
2022/05/12 04:09:34;;;;;;;;;;;;;;;21.98;53.89;100126.84;2082035;28;19938;-45
2022/05/12 04:10:35;;;;;;;;;;;;;;;21.98;53.80;100127.69;2079807;28;19957;-43
2022/05/12 04:11:36;;;;;;;;;;;;;;;21.98;53.99;100129.56;2080414;28;19921;-44
2022/05/12 04:12:36;;;;;;;;;;;;;;;21.98;54.00;100127.69;2076896;28;20817;-43
2022/05/12 04:13:37;;;;;;;;;;;;;;;21.99;54.14;100134.03;2071433;28;20069;-43
2022/05/12 04:14:37;;;;;;;;;;;;;;;21.99;54.19;100128.53;2084467;28;20069;-42
2022/05/12 04:15:38;;;;;;;;;;;;;;;21.99;54.31;100132.13;2080517;28;19980;-43
2022/05/12 04:16:39;;;;;;;;;;;;;;;22.00;54.20;100130.28;2083241;28;19981;-44
2022/05/12 04:17:39;;;;;;;;;;;;;;;22.01;54.33;100130.09;2081824;28;19963;-46
2022/05/12 04:18:39;;;;;;;;;;;;;;;22.01;54.21;100127.34;2083026;28;19920;-43
2022/05/12 04:19:41;;;;;;;;;;;;;;;22.02;54.26;100129.06;2082101;28;20214;-45
2022/05/12 04:20:41;;;;;;;;;;;;;;;22.03;54.14;100129.94;2082906;28;20597;-45
2022/05/12 04:21:42;;;;;;;;;;;;;;;22.03;54.25;100124.44;2080744;28;19920;-44
2022/05/12 04:22:45;;;;;;;;;;;;;;;22.03;54.40;100125.28;2081392;28;19923;-43
2022/05/12 04:23:46;;;;;;;;;;;;;;;22.03;54.06;100118.94;2082903;28;19913;-45
2022/05/12 04:24:46;;;;;;;;;;;;;;;22.04;54.55;100126.16;2073936;28;19991;-44
2022/05/12 04:25:47;;;;;;;;;;;;;;;22.04;54.31;100121.50;2071583;28;19932;-43
2022/05/12 04:26:47;;;;;;;;;;;;;;;22.04;54.18;100120.66;2083294;28;20261;-45
2022/05/12 04:27:48;;;;;;;;;;;;;;;22.04;54.43;100121.50;2083923;28;19927;-44
2022/05/12 04:28:49;;;;;;;;;;;;;;;22.04;54.39;100116.00;2080343;28;19963;-44
2022/05/12 04:29:49;;;;;;;;;;;;;;;22.04;54.29;100121.50;2082110;28;19942;-44
2022/05/12 04:30:51;;;;;;;;;;;;;;;22.04;54.39;100121.50;2083079;28;20310;-44
2022/05/12 04:31:51;;;;;;;;;;;;;;;22.04;54.40;100123.41;2082981;28;19916;-45
2022/05/12 04:32:51;;;;;;;;;;;;;;;22.05;54.17;100123.25;2078899;28;20121;-45
2022/05/12 04:35:12;;;;;;;;;;;;;;;22.04;54.29;100115.16;2081838;28;19920;-45
2022/05/12 04:36:13;;;;;;;;;;;;;;;22.04;54.17;100123.41;2082746;28;19920;-45
2022/05/12 04:37:13;;;;;;;;;;;;;;;22.03;54.32;100119.81;2084248;28;20231;-45
2022/05/12 04:38:14;;;;;;;;;;;;;;;22.03;54.25;100116.19;2082922;28;19976;-42
2022/05/12 04:39:14;;;;;;;;;;;;;;;22.03;54.34;100113.47;2084302;28;19920;-42
2022/05/12 04:40:15;;;;;;;;;;;;;;;22.03;54.34;100107.97;2079879;28;20640;-43
2022/05/12 04:41:16;;;;;;;;;;;;;;;22.03;54.28;100113.47;2084571;28;20244;-42
2022/05/12 04:42:16;;;;;;;;;;;;;;;22.01;54.23;100107.28;2081384;28;19925;-41
2022/05/12 04:43:17;;;;;;;;;;;;;;;22.00;54.31;100113.81;2083435;28;19986;-42
2022/05/12 04:44:17;;;;;;;;;;;;;;;21.97;54.23;100112.22;2082888;28;19934;-42
2022/05/12 04:45:18;;;;;;;;;;;;;;;21.95;54.03;100107.94;2083806;28;20300;-42
2022/05/12 04:46:18;;;;;;;;;;;;;;;21.93;53.89;100112.75;2079352;28;20418;-43
2022/05/12 04:47:19;;;;;;;;;;;;;;;21.92;54.18;100111.03;2084488;28;20291;-40
2022/05/12 04:48:19;;;;;;;;;;;;;;;21.90;54.21;100113.06;2082997;28;19909;-40
2022/05/12 04:49:20;;;;;;;;;;;;;;;21.89;53.97;100114.09;2082523;28;19970;-42
2022/05/12 04:50:23;;;;;;;;;;;;;;;21.88;54.18;100116.00;2082079;28;19928;-42
2022/05/12 04:51:23;;;;;;;;;;;;;;;21.89;53.99;100125.09;2083224;28;20223;-41
2022/05/12 04:52:23;;;;;;;;;;;;;;;21.88;54.09;100113.25;2083048;28;19912;-41
2022/05/12 04:53:24;;;;;;;;;;;;;;;21.88;54.10;100109.63;2083624;28;20009;-41
2022/05/12 04:54:24;;;;;;;;;;;;;;;21.88;54.05;100109.63;2072509;28;19931;-42
2022/05/12 04:55:25;;;;;;;;;;;;;;;21.87;54.07;100111.53;2072844;28;19954;-43
2022/05/12 04:56:25;;;;;;;;;;;;;;;21.87;53.96;100107.94;2084309;28;20561;-42
2022/05/12 04:57:25;;;;;;;;;;;;;;;21.88;54.07;100109.63;2079466;28;19920;-42
2022/05/12 04:58:26;;;;;;;;;;;;;;;21.87;54.17;100113.41;2078383;28;20243;-41
2022/05/12 04:59:26;;;;;;;;;;;;;;;21.87;54.30;100105.19;2081090;28;19920;-41
2022/05/12 05:00:28;;;;;;;;;;;;;;;21.87;54.35;100114.25;2083896;28;19917;-42
2022/05/12 05:01:29;;;;;;;;;;;;;;;21.86;54.03;100117.19;2082853;28;19920;-41
2022/05/12 05:02:29;;;;;;;;;;;;;;;21.86;54.27;100111.72;2081551;28;19923;-42
2022/05/12 05:03:29;;;;;;;;;;;;;;;21.86;54.12;100114.47;2079784;28;19921;-42
2022/05/12 05:04:30;;;;;;;;;;;;;;;21.86;54.20;100125.44;2082119;28;20122;-42
2022/05/12 05:05:30;;;;;;;;;;;;;;;21.86;54.27;100114.47;2084595;28;19917;-41
2022/05/12 05:06:31;;;;;;;;;;;;;;;21.86;54.29;100117.19;2081174;28;19924;-41
2022/05/12 05:07:31;;;;;;;;;;;;;;;21.87;54.11;100124.38;2082887;28;20308;-42
2022/05/12 05:08:32;;;;;;;;;;;;;;;21.84;54.13;100115.47;2079664;28;19936;-42
2022/05/12 05:09:32;;;;;;;;;;;;;;;21.83;54.18;100116.50;2085119;28;20132;-43
2022/05/12 05:10:33;;;;;;;;;;;;;;;21.82;54.37;100112.03;2081239;28;19920;-43
2022/05/12 05:11:37;;;;;;;;;;;;;;;21.84;54.67;100115.47;2083495;28;19920;-42
2022/05/12 05:12:39;;;;;;;;;;;;;;;21.83;54.29;100110.16;2082453;28;19924;-42
2022/05/12 05:13:39;;;;;;;;;;;;;;;21.82;54.39;100111.16;2083888;28;20343;-42
2022/05/12 05:14:40;;;;;;;;;;;;;;;21.82;54.49;100117.50;2078975;28;19974;-41
2022/05/12 05:15:40;;;;;;;;;;;;;;;21.81;54.55;100110.31;2085027;28;20001;-42